sensor_id;sensor_type;location;lat;lon;timestamp;pressure;altitude;pressure_sealevel;temperature
20103;BMP180;10210;52.284;9.892;2023-03-02T00:00:54;101523.00;;;6.40
20103;BMP180;10210;52.284;9.892;2023-03-02T00:03:21;101524.00;;;6.40
20103;BMP180;10210;52.284;9.892;2023-03-02T00:05:47;101517.00;;;6.30
20103;BMP180;10210;52.284;9.892;2023-03-02T00:08:17;101515.00;;;6.20
20103;BMP180;10210;52.284;9.892;2023-03-02T00:10:43;101518.00;;;6.20
20103;BMP180;10210;52.284;9.892;2023-03-02T00:13:10;101509.00;;;6.20
20103;BMP180;10210;52.284;9.892;2023-03-02T00:15:36;101526.00;;;6.10
20103;BMP180;10210;52.284;9.892;2023-03-02T00:18:01;101521.00;;;6.00
20103;BMP180;10210;52.284;9.892;2023-03-02T00:20:27;101528.00;;;6.00
20103;BMP180;10210;52.284;9.892;2023-03-02T00:22:53;101528.00;;;6.00
20103;BMP180;10210;52.284;9.892;2023-03-02T00:25:19;101528.00;;;6.00
20103;BMP180;10210;52.284;9.892;2023-03-02T00:27:44;101535.00;;;6.00
20103;BMP180;10210;52.284;9.892;2023-03-02T00:30:11;101533.00;;;6.00
20103;BMP180;10210;52.284;9.892;2023-03-02T00:32:38;101526.00;;;6.00
20103;BMP180;10210;52.284;9.892;2023-03-02T00:35:04;101521.00;;;6.00
20103;BMP180;10210;52.284;9.892;2023-03-02T00:37:31;101530.00;;;5.90
20103;BMP180;10210;52.284;9.892;2023-03-02T00:39:56;101523.00;;;5.90
20103;BMP180;10210;52.284;9.892;2023-03-02T00:42:22;101525.00;;;5.90
20103;BMP180;10210;52.284;9.892;2023-03-02T00:44:48;101530.00;;;5.90
20103;BMP180;10210;52.284;9.892;2023-03-02T00:47:13;101518.00;;;5.80
20103;BMP180;10210;52.284;9.892;2023-03-02T00:49:39;101515.00;;;5.80
20103;BMP180;10210;52.284;9.892;2023-03-02T00:52:05;101514.00;;;5.80
20103;BMP180;10210;52.284;9.892;2023-03-02T00:54:31;101505.00;;;5.80
20103;BMP180;10210;52.284;9.892;2023-03-02T00:56:57;101515.00;;;5.80
20103;BMP180;10210;52.284;9.892;2023-03-02T00:59:23;101505.00;;;5.80
20103;BMP180;10210;52.284;9.892;2023-03-02T01:01:58;101512.00;;;5.80
20103;BMP180;10210;52.284;9.892;2023-03-02T01:04:34;101514.00;;;5.80
20103;BMP180;10210;52.284;9.892;2023-03-02T01:07:05;101510.00;;;5.80
20103;BMP180;10210;52.284;9.892;2023-03-02T01:09:31;101515.00;;;5.80
20103;BMP180;10210;52.284;9.892;2023-03-02T01:11:57;101517.00;;;5.80
20103;BMP180;10210;52.284;9.892;2023-03-02T01:14:23;101504.00;;;5.70
20103;BMP180;10210;52.284;9.892;2023-03-02T01:16:49;101502.00;;;5.80
20103;BMP180;10210;52.284;9.892;2023-03-02T01:19:16;101502.00;;;5.70
20103;BMP180;10210;52.284;9.892;2023-03-02T01:21:42;101508.00;;;5.70
20103;BMP180;10210;52.284;9.892;2023-03-02T01:24:09;101508.00;;;5.70
20103;BMP180;10210;52.284;9.892;2023-03-02T01:26:36;101509.00;;;5.70
20103;BMP180;10210;52.284;9.892;2023-03-02T01:29:03;101508.00;;;5.70
20103;BMP180;10210;52.284;9.892;2023-03-02T01:31:28;101508.00;;;5.70
20103;BMP180;10210;52.284;9.892;2023-03-02T01:33:55;101507.00;;;5.60
20103;BMP180;10210;52.284;9.892;2023-03-02T01:36:23;101514.00;;;5.60
20103;BMP180;10210;52.284;9.892;2023-03-02T01:38:49;101506.00;;;5.60
20103;BMP180;10210;52.284;9.892;2023-03-02T01:41:16;101501.00;;;5.60
20103;BMP180;10210;52.284;9.892;2023-03-02T01:43:42;101496.00;;;5.60
20103;BMP180;10210;52.284;9.892;2023-03-02T01:46:26;101494.00;;;5.50
20103;BMP180;10210;52.284;9.892;2023-03-02T01:49:06;101498.00;;;5.50
20103;BMP180;10210;52.284;9.892;2023-03-02T01:51:44;101494.00;;;5.50
20103;BMP180;10210;52.284;9.892;2023-03-02T01:54:15;101485.00;;;5.40
20103;BMP180;10210;52.284;9.892;2023-03-02T01:56:44;101487.00;;;5.40
20103;BMP180;10210;52.284;9.892;2023-03-02T01:59:17;101467.00;;;5.40
20103;BMP180;10210;52.284;9.892;2023-03-02T02:01:50;101471.00;;;5.30
20103;BMP180;10210;52.284;9.892;2023-03-02T02:04:17;101474.00;;;5.30
20103;BMP180;10210;52.284;9.892;2023-03-02T02:07:05;101476.00;;;5.30
20103;BMP180;10210;52.284;9.892;2023-03-02T02:09:37;101474.00;;;5.30
20103;BMP180;10210;52.284;9.892;2023-03-02T02:12:04;101471.00;;;5.30
20103;BMP180;10210;52.284;9.892;2023-03-02T02:14:30;101466.00;;;5.20
20103;BMP180;10210;52.284;9.892;2023-03-02T02:16:56;101470.00;;;5.20
20103;BMP180;10210;52.284;9.892;2023-03-02T02:22:23;101468.00;;;5.10
20103;BMP180;10210;52.284;9.892;2023-03-02T02:24:57;101469.00;;;5.10
20103;BMP180;10210;52.284;9.892;2023-03-02T02:27:25;101476.00;;;5.00
20103;BMP180;10210;52.284;9.892;2023-03-02T02:29:56;101462.00;;;5.00
20103;BMP180;10210;52.284;9.892;2023-03-02T02:32:26;101470.00;;;5.00
20103;BMP180;10210;52.284;9.892;2023-03-02T02:35:03;101466.00;;;5.00
20103;BMP180;10210;52.284;9.892;2023-03-02T02:37:37;101467.00;;;4.90
20103;BMP180;10210;52.284;9.892;2023-03-02T02:40:06;101466.00;;;4.90
20103;BMP180;10210;52.284;9.892;2023-03-02T02:42:42;101468.00;;;4.90
20103;BMP180;10210;52.284;9.892;2023-03-02T02:45:23;101460.00;;;4.80
20103;BMP180;10210;52.284;9.892;2023-03-02T02:47:51;101463.00;;;4.80
20103;BMP180;10210;52.284;9.892;2023-03-02T02:50:29;101454.00;;;4.80
20103;BMP180;10210;52.284;9.892;2023-03-02T02:53:02;101452.00;;;4.70
20103;BMP180;10210;52.284;9.892;2023-03-02T02:55:31;101461.00;;;4.70
20103;BMP180;10210;52.284;9.892;2023-03-02T02:58:02;101461.00;;;4.70
20103;BMP180;10210;52.284;9.892;2023-03-02T03:00:36;101451.00;;;4.70
20103;BMP180;10210;52.284;9.892;2023-03-02T03:03:18;101464.00;;;4.70
20103;BMP180;10210;52.284;9.892;2023-03-02T03:05:55;101458.00;;;4.60
20103;BMP180;10210;52.284;9.892;2023-03-02T03:11:13;101458.00;;;4.70
20103;BMP180;10210;52.284;9.892;2023-03-02T03:13:42;101459.00;;;4.70
20103;BMP180;10210;52.284;9.892;2023-03-02T03:16:13;101448.00;;;4.70
20103;BMP180;10210;52.284;9.892;2023-03-02T03:18:46;101448.00;;;4.70
20103;BMP180;10210;52.284;9.892;2023-03-02T03:21:13;101439.00;;;4.70
20103;BMP180;10210;52.284;9.892;2023-03-02T03:23:38;101441.00;;;4.70
20103;BMP180;10210;52.284;9.892;2023-03-02T03:26:05;101438.00;;;4.70
20103;BMP180;10210;52.284;9.892;2023-03-02T03:28:32;101433.00;;;4.70
20103;BMP180;10210;52.284;9.892;2023-03-02T03:30:57;101430.00;;;4.70
20103;BMP180;10210;52.284;9.892;2023-03-02T03:33:24;101433.00;;;4.70
20103;BMP180;10210;52.284;9.892;2023-03-02T03:35:50;101431.00;;;4.60
20103;BMP180;10210;52.284;9.892;2023-03-02T03:38:16;101439.00;;;4.60
20103;BMP180;10210;52.284;9.892;2023-03-02T03:40:42;101440.00;;;4.60
20103;BMP180;10210;52.284;9.892;2023-03-02T03:43:08;101446.00;;;4.60
20103;BMP180;10210;52.284;9.892;2023-03-02T03:45:34;101441.00;;;4.50
20103;BMP180;10210;52.284;9.892;2023-03-02T03:48:00;101449.00;;;4.50
20103;BMP180;10210;52.284;9.892;2023-03-02T03:50:26;101433.00;;;4.50
20103;BMP180;10210;52.284;9.892;2023-03-02T03:52:51;101444.00;;;4.40
20103;BMP180;10210;52.284;9.892;2023-03-02T03:55:18;101453.00;;;4.40
20103;BMP180;10210;52.284;9.892;2023-03-02T03:57:44;101458.00;;;4.40
20103;BMP180;10210;52.284;9.892;2023-03-02T04:00:13;101453.00;;;4.30
20103;BMP180;10210;52.284;9.892;2023-03-02T04:02:41;101457.00;;;4.30
20103;BMP180;10210;52.284;9.892;2023-03-02T04:05:08;101465.00;;;4.30
20103;BMP180;10210;52.284;9.892;2023-03-02T04:07:35;101457.00;;;4.30
20103;BMP180;10210;52.284;9.892;2023-03-02T04:10:03;101461.00;;;4.30
20103;BMP180;10210;52.284;9.892;2023-03-02T04:12:31;101463.00;;;4.30
20103;BMP180;10210;52.284;9.892;2023-03-02T04:14:58;101456.00;;;4.30
20103;BMP180;10210;52.284;9.892;2023-03-02T04:17:24;101469.00;;;4.40
20103;BMP180;10210;52.284;9.892;2023-03-02T04:19:50;101465.00;;;4.40
20103;BMP180;10210;52.284;9.892;2023-03-02T04:22:16;101467.00;;;4.40
20103;BMP180;10210;52.284;9.892;2023-03-02T04:24:45;101464.00;;;4.40
20103;BMP180;10210;52.284;9.892;2023-03-02T04:27:12;101463.00;;;4.40
20103;BMP180;10210;52.284;9.892;2023-03-02T04:29:38;101461.00;;;4.40
20103;BMP180;10210;52.284;9.892;2023-03-02T04:32:05;101459.00;;;4.30
20103;BMP180;10210;52.284;9.892;2023-03-02T04:34:32;101465.00;;;4.40
20103;BMP180;10210;52.284;9.892;2023-03-02T04:36:58;101458.00;;;4.40
20103;BMP180;10210;52.284;9.892;2023-03-02T04:39:23;101452.00;;;4.40
20103;BMP180;10210;52.284;9.892;2023-03-02T04:41:50;101448.00;;;4.40
20103;BMP180;10210;52.284;9.892;2023-03-02T04:44:17;101456.00;;;4.40
20103;BMP180;10210;52.284;9.892;2023-03-02T04:46:45;101468.00;;;4.40
20103;BMP180;10210;52.284;9.892;2023-03-02T04:49:13;101454.00;;;4.40
20103;BMP180;10210;52.284;9.892;2023-03-02T04:51:43;101456.00;;;4.40
20103;BMP180;10210;52.284;9.892;2023-03-02T04:54:25;101453.00;;;4.40
20103;BMP180;10210;52.284;9.892;2023-03-02T04:56:52;101465.00;;;4.40
20103;BMP180;10210;52.284;9.892;2023-03-02T04:59:24;101461.00;;;4.40
20103;BMP180;10210;52.284;9.892;2023-03-02T05:01:53;101459.00;;;4.40
20103;BMP180;10210;52.284;9.892;2023-03-02T05:04:19;101461.00;;;4.40
20103;BMP180;10210;52.284;9.892;2023-03-02T05:06:45;101445.00;;;4.40
20103;BMP180;10210;52.284;9.892;2023-03-02T05:09:11;101440.00;;;4.40
20103;BMP180;10210;52.284;9.892;2023-03-02T05:11:37;101440.00;;;4.40
20103;BMP180;10210;52.284;9.892;2023-03-02T05:14:06;101448.00;;;4.50
20103;BMP180;10210;52.284;9.892;2023-03-02T05:16:36;101443.00;;;4.50
20103;BMP180;10210;52.284;9.892;2023-03-02T05:19:05;101433.00;;;4.50
20103;BMP180;10210;52.284;9.892;2023-03-02T05:21:31;101423.00;;;4.50
20103;BMP180;10210;52.284;9.892;2023-03-02T05:23:58;101421.00;;;4.50
20103;BMP180;10210;52.284;9.892;2023-03-02T05:26:24;101415.00;;;4.50
20103;BMP180;10210;52.284;9.892;2023-03-02T05:28:49;101424.00;;;4.50
20103;BMP180;10210;52.284;9.892;2023-03-02T05:31:25;101431.00;;;4.50
20103;BMP180;10210;52.284;9.892;2023-03-02T05:33:52;101427.00;;;4.50
20103;BMP180;10210;52.284;9.892;2023-03-02T05:36:17;101426.00;;;4.50
20103;BMP180;10210;52.284;9.892;2023-03-02T05:38:43;101432.00;;;4.50
20103;BMP180;10210;52.284;9.892;2023-03-02T05:41:09;101432.00;;;4.50
20103;BMP180;10210;52.284;9.892;2023-03-02T05:43:35;101436.00;;;4.50
20103;BMP180;10210;52.284;9.892;2023-03-02T05:46:01;101437.00;;;4.50
20103;BMP180;10210;52.284;9.892;2023-03-02T05:48:28;101429.00;;;4.50
20103;BMP180;10210;52.284;9.892;2023-03-02T05:50:55;101432.00;;;4.50
20103;BMP180;10210;52.284;9.892;2023-03-02T05:53:21;101435.00;;;4.40
20103;BMP180;10210;52.284;9.892;2023-03-02T05:55:47;101439.00;;;4.50
20103;BMP180;10210;52.284;9.892;2023-03-02T05:58:16;101436.00;;;4.50
20103;BMP180;10210;52.284;9.892;2023-03-02T06:00:46;101444.00;;;4.50
20103;BMP180;10210;52.284;9.892;2023-03-02T06:03:13;101447.00;;;4.50
20103;BMP180;10210;52.284;9.892;2023-03-02T06:05:39;101445.00;;;4.40
20103;BMP180;10210;52.284;9.892;2023-03-02T06:08:05;101456.00;;;4.50
20103;BMP180;10210;52.284;9.892;2023-03-02T06:10:32;101458.00;;;4.50
20103;BMP180;10210;52.284;9.892;2023-03-02T06:12:58;101470.00;;;4.50
20103;BMP180;10210;52.284;9.892;2023-03-02T06:15:26;101462.00;;;4.50
20103;BMP180;10210;52.284;9.892;2023-03-02T06:17:56;101463.00;;;4.60
20103;BMP180;10210;52.284;9.892;2023-03-02T06:20:22;101474.00;;;4.60
20103;BMP180;10210;52.284;9.892;2023-03-02T06:22:51;101473.00;;;4.60
20103;BMP180;10210;52.284;9.892;2023-03-02T06:25:21;101482.00;;;4.60
20103;BMP180;10210;52.284;9.892;2023-03-02T06:27:50;101480.00;;;4.70
20103;BMP180;10210;52.284;9.892;2023-03-02T06:30:22;101487.00;;;4.70
20103;BMP180;10210;52.284;9.892;2023-03-02T06:32:49;101475.00;;;4.70
20103;BMP180;10210;52.284;9.892;2023-03-02T06:35:15;101485.00;;;4.70
20103;BMP180;10210;52.284;9.892;2023-03-02T06:37:41;101480.00;;;4.70
20103;BMP180;10210;52.284;9.892;2023-03-02T06:40:08;101490.00;;;4.70
20103;BMP180;10210;52.284;9.892;2023-03-02T06:42:36;101495.00;;;4.70
20103;BMP180;10210;52.284;9.892;2023-03-02T06:45:03;101495.00;;;4.70
20103;BMP180;10210;52.284;9.892;2023-03-02T06:47:29;101496.00;;;4.70
20103;BMP180;10210;52.284;9.892;2023-03-02T06:49:55;101490.00;;;4.70
20103;BMP180;10210;52.284;9.892;2023-03-02T06:52:21;101492.00;;;4.70
20103;BMP180;10210;52.284;9.892;2023-03-02T06:54:46;101491.00;;;4.70
20103;BMP180;10210;52.284;9.892;2023-03-02T06:57:12;101491.00;;;4.70
20103;BMP180;10210;52.284;9.892;2023-03-02T06:59:38;101485.00;;;4.70
20103;BMP180;10210;52.284;9.892;2023-03-02T07:02:03;101481.00;;;4.70
20103;BMP180;10210;52.284;9.892;2023-03-02T07:04:29;101480.00;;;4.70
20103;BMP180;10210;52.284;9.892;2023-03-02T07:06:55;101483.00;;;4.80
20103;BMP180;10210;52.284;9.892;2023-03-02T07:09:21;101488.00;;;4.80
20103;BMP180;10210;52.284;9.892;2023-03-02T07:11:47;101482.00;;;4.80
20103;BMP180;10210;52.284;9.892;2023-03-02T07:14:13;101485.00;;;4.80
20103;BMP180;10210;52.284;9.892;2023-03-02T07:16:38;101474.00;;;4.80
20103;BMP180;10210;52.284;9.892;2023-03-02T07:19:04;101475.00;;;4.80
20103;BMP180;10210;52.284;9.892;2023-03-02T07:21:30;101458.00;;;4.80
20103;BMP180;10210;52.284;9.892;2023-03-02T07:23:57;101458.00;;;4.90
20103;BMP180;10210;52.284;9.892;2023-03-02T07:26:23;101474.00;;;4.90
20103;BMP180;10210;52.284;9.892;2023-03-02T07:28:48;101458.00;;;4.90
20103;BMP180;10210;52.284;9.892;2023-03-02T07:31:14;101457.00;;;4.90
20103;BMP180;10210;52.284;9.892;2023-03-02T07:33:40;101453.00;;;4.90
20103;BMP180;10210;52.284;9.892;2023-03-02T07:36:07;101453.00;;;4.90
20103;BMP180;10210;52.284;9.892;2023-03-02T07:38:33;101461.00;;;4.90
20103;BMP180;10210;52.284;9.892;2023-03-02T07:41:07;101444.00;;;5.00
20103;BMP180;10210;52.284;9.892;2023-03-02T07:43:33;101458.00;;;5.00
20103;BMP180;10210;52.284;9.892;2023-03-02T07:46:02;101463.00;;;5.00
20103;BMP180;10210;52.284;9.892;2023-03-02T07:48:29;101463.00;;;5.00
20103;BMP180;10210;52.284;9.892;2023-03-02T07:51:00;101466.00;;;5.00
20103;BMP180;10210;52.284;9.892;2023-03-02T07:53:27;101462.00;;;5.00
20103;BMP180;10210;52.284;9.892;2023-03-02T07:55:53;101463.00;;;5.10
20103;BMP180;10210;52.284;9.892;2023-03-02T07:58:19;101457.00;;;5.10
20103;BMP180;10210;52.284;9.892;2023-03-02T08:00:46;101462.00;;;5.10
20103;BMP180;10210;52.284;9.892;2023-03-02T08:03:11;101451.00;;;5.10
20103;BMP180;10210;52.284;9.892;2023-03-02T08:05:37;101455.00;;;5.10
20103;BMP180;10210;52.284;9.892;2023-03-02T08:08:03;101454.00;;;5.20
20103;BMP180;10210;52.284;9.892;2023-03-02T08:10:28;101467.00;;;5.20
20103;BMP180;10210;52.284;9.892;2023-03-02T08:12:54;101466.00;;;5.20
20103;BMP180;10210;52.284;9.892;2023-03-02T08:15:20;101468.00;;;5.20
20103;BMP180;10210;52.284;9.892;2023-03-02T08:17:45;101468.00;;;5.20
20103;BMP180;10210;52.284;9.892;2023-03-02T08:20:11;101470.00;;;5.20
20103;BMP180;10210;52.284;9.892;2023-03-02T08:22:37;101473.00;;;5.30
20103;BMP180;10210;52.284;9.892;2023-03-02T08:25:05;101469.00;;;5.30
20103;BMP180;10210;52.284;9.892;2023-03-02T08:27:31;101479.00;;;5.30
20103;BMP180;10210;52.284;9.892;2023-03-02T08:30:00;101473.00;;;5.30
20103;BMP180;10210;52.284;9.892;2023-03-02T08:32:26;101471.00;;;5.30
20103;BMP180;10210;52.284;9.892;2023-03-02T08:34:52;101469.00;;;5.30
20103;BMP180;10210;52.284;9.892;2023-03-02T08:37:18;101473.00;;;5.30
20103;BMP180;10210;52.284;9.892;2023-03-02T08:39:44;101473.00;;;5.30
20103;BMP180;10210;52.284;9.892;2023-03-02T08:42:10;101471.00;;;5.30
20103;BMP180;10210;52.284;9.892;2023-03-02T08:44:35;101473.00;;;5.30
20103;BMP180;10210;52.284;9.892;2023-03-02T08:47:01;101476.00;;;5.30
20103;BMP180;10210;52.284;9.892;2023-03-02T08:49:27;101465.00;;;5.40
20103;BMP180;10210;52.284;9.892;2023-03-02T08:51:52;101468.00;;;5.40
20103;BMP180;10210;52.284;9.892;2023-03-02T08:54:21;101464.00;;;5.40
20103;BMP180;10210;52.284;9.892;2023-03-02T08:56:48;101466.00;;;5.50
20103;BMP180;10210;52.284;9.892;2023-03-02T08:59:15;101468.00;;;5.50
20103;BMP180;10210;52.284;9.892;2023-03-02T09:01:41;101470.00;;;5.50
20103;BMP180;10210;52.284;9.892;2023-03-02T09:04:09;101478.00;;;5.50
20103;BMP180;10210;52.284;9.892;2023-03-02T09:06:41;101479.00;;;5.50
20103;BMP180;10210;52.284;9.892;2023-03-02T09:09:09;101480.00;;;5.50
20103;BMP180;10210;52.284;9.892;2023-03-02T09:11:36;101487.00;;;5.50
20103;BMP180;10210;52.284;9.892;2023-03-02T09:14:02;101470.00;;;5.50
20103;BMP180;10210;52.284;9.892;2023-03-02T09:16:28;101465.00;;;5.60
20103;BMP180;10210;52.284;9.892;2023-03-02T09:18:54;101471.00;;;5.60
20103;BMP180;10210;52.284;9.892;2023-03-02T09:21:20;101473.00;;;5.60
20103;BMP180;10210;52.284;9.892;2023-03-02T09:23:46;101481.00;;;5.60
20103;BMP180;10210;52.284;9.892;2023-03-02T09:26:12;101477.00;;;5.60
20103;BMP180;10210;52.284;9.892;2023-03-02T09:28:38;101476.00;;;5.70
20103;BMP180;10210;52.284;9.892;2023-03-02T09:31:06;101472.00;;;5.70
20103;BMP180;10210;52.284;9.892;2023-03-02T09:33:33;101472.00;;;5.70
20103;BMP180;10210;52.284;9.892;2023-03-02T09:36:04;101472.00;;;5.70
20103;BMP180;10210;52.284;9.892;2023-03-02T09:38:30;101472.00;;;5.80
20103;BMP180;10210;52.284;9.892;2023-03-02T09:44:19;101482.00;;;5.80
20103;BMP180;10210;52.284;9.892;2023-03-02T09:46:54;101472.00;;;5.80
20103;BMP180;10210;52.284;9.892;2023-03-02T09:52:16;101479.00;;;5.80
20103;BMP180;10210;52.284;9.892;2023-03-02T09:54:46;101481.00;;;5.90
20103;BMP180;10210;52.284;9.892;2023-03-02T09:57:31;101475.00;;;5.90
20103;BMP180;10210;52.284;9.892;2023-03-02T10:00:06;101487.00;;;5.90
20103;BMP180;10210;52.284;9.892;2023-03-02T10:02:46;101476.00;;;5.90
20103;BMP180;10210;52.284;9.892;2023-03-02T10:05:23;101479.00;;;5.90
20103;BMP180;10210;52.284;9.892;2023-03-02T10:07:49;101473.00;;;5.90
20103;BMP180;10210;52.284;9.892;2023-03-02T10:10:23;101477.00;;;6.00
20103;BMP180;10210;52.284;9.892;2023-03-02T10:13:29;101467.00;;;5.90
20103;BMP180;10210;52.284;9.892;2023-03-02T10:19:31;101473.00;;;5.90
20103;BMP180;10210;52.284;9.892;2023-03-02T10:22:41;101468.00;;;5.90
20103;BMP180;10210;52.284;9.892;2023-03-02T10:25:47;101469.00;;;5.90
20103;BMP180;10210;52.284;9.892;2023-03-02T10:28:20;101466.00;;;6.00
20103;BMP180;10210;52.284;9.892;2023-03-02T10:30:58;101470.00;;;6.00
20103;BMP180;10210;52.284;9.892;2023-03-02T10:33:26;101465.00;;;6.10
20103;BMP180;10210;52.284;9.892;2023-03-02T10:35:52;101462.00;;;6.20
20103;BMP180;10210;52.284;9.892;2023-03-02T10:38:27;101466.00;;;6.20
20103;BMP180;10210;52.284;9.892;2023-03-02T10:41:02;101467.00;;;6.30
20103;BMP180;10210;52.284;9.892;2023-03-02T10:43:39;101456.00;;;6.30
20103;BMP180;10210;52.284;9.892;2023-03-02T10:46:09;101471.00;;;6.40
20103;BMP180;10210;52.284;9.892;2023-03-02T10:48:57;101454.00;;;6.40
20103;BMP180;10210;52.284;9.892;2023-03-02T10:51:33;101457.00;;;6.50
20103;BMP180;10210;52.284;9.892;2023-03-02T10:54:13;101459.00;;;6.50
20103;BMP180;10210;52.284;9.892;2023-03-02T10:56:47;101440.00;;;6.60
20103;BMP180;10210;52.284;9.892;2023-03-02T10:59:44;101451.00;;;6.60
20103;BMP180;10210;52.284;9.892;2023-03-02T11:02:22;101444.00;;;6.70
20103;BMP180;10210;52.284;9.892;2023-03-02T11:05:34;101451.00;;;6.70
20103;BMP180;10210;52.284;9.892;2023-03-02T11:08:09;101448.00;;;6.80
20103;BMP180;10210;52.284;9.892;2023-03-02T11:10:40;101447.00;;;6.80
20103;BMP180;10210;52.284;9.892;2023-03-02T11:13:18;101441.00;;;6.80
20103;BMP180;10210;52.284;9.892;2023-03-02T11:15:48;101444.00;;;6.80
20103;BMP180;10210;52.284;9.892;2023-03-02T11:18:31;101450.00;;;6.80
20103;BMP180;10210;52.284;9.892;2023-03-02T11:21:08;101442.00;;;6.80
20103;BMP180;10210;52.284;9.892;2023-03-02T11:24:22;101441.00;;;6.80
20103;BMP180;10210;52.284;9.892;2023-03-02T11:26:54;101438.00;;;6.90
20103;BMP180;10210;52.284;9.892;2023-03-02T11:29:36;101442.00;;;6.90
20103;BMP180;10210;52.284;9.892;2023-03-02T11:34:53;101434.00;;;6.90
20103;BMP180;10210;52.284;9.892;2023-03-02T11:37:27;101433.00;;;7.00
20103;BMP180;10210;52.284;9.892;2023-03-02T11:40:30;101425.00;;;7.00
20103;BMP180;10210;52.284;9.892;2023-03-02T11:43:00;101423.00;;;7.00
20103;BMP180;10210;52.284;9.892;2023-03-02T11:45:32;101411.00;;;7.10
20103;BMP180;10210;52.284;9.892;2023-03-02T11:48:08;101423.00;;;7.10
20103;BMP180;10210;52.284;9.892;2023-03-02T11:50:57;101422.00;;;7.00
20103;BMP180;10210;52.284;9.892;2023-03-02T11:53:56;101428.00;;;7.10
20103;BMP180;10210;52.284;9.892;2023-03-02T11:56:24;101423.00;;;7.10
20103;BMP180;10210;52.284;9.892;2023-03-02T11:58:59;101423.00;;;7.20
20103;BMP180;10210;52.284;9.892;2023-03-02T12:01:30;101427.00;;;7.20
20103;BMP180;10210;52.284;9.892;2023-03-02T12:04:24;101420.00;;;7.20
20103;BMP180;10210;52.284;9.892;2023-03-02T12:06:50;101417.00;;;7.30
20103;BMP180;10210;52.284;9.892;2023-03-02T12:11:57;101408.00;;;7.30
20103;BMP180;10210;52.284;9.892;2023-03-02T12:14:36;101407.00;;;7.40
20103;BMP180;10210;52.284;9.892;2023-03-02T12:17:21;101390.00;;;7.40
20103;BMP180;10210;52.284;9.892;2023-03-02T12:20:21;101391.00;;;7.40
20103;BMP180;10210;52.284;9.892;2023-03-02T12:22:47;101387.00;;;7.50
20103;BMP180;10210;52.284;9.892;2023-03-02T12:27:48;101382.00;;;7.50
20103;BMP180;10210;52.284;9.892;2023-03-02T12:32:44;101385.00;;;7.60
20103;BMP180;10210;52.284;9.892;2023-03-02T12:35:17;101390.00;;;7.60
20103;BMP180;10210;52.284;9.892;2023-03-02T12:37:47;101397.00;;;7.60
20103;BMP180;10210;52.284;9.892;2023-03-02T12:40:38;101390.00;;;7.50
20103;BMP180;10210;52.284;9.892;2023-03-02T12:43:43;101380.00;;;7.50
20103;BMP180;10210;52.284;9.892;2023-03-02T12:46:27;101373.00;;;7.50
20103;BMP180;10210;52.284;9.892;2023-03-02T12:49:24;101381.00;;;7.50
20103;BMP180;10210;52.284;9.892;2023-03-02T12:51:58;101385.00;;;7.50
20103;BMP180;10210;52.284;9.892;2023-03-02T12:54:31;101380.00;;;7.60
20103;BMP180;10210;52.284;9.892;2023-03-02T12:57:19;101367.00;;;7.60
20103;BMP180;10210;52.284;9.892;2023-03-02T12:59:56;101376.00;;;7.60
20103;BMP180;10210;52.284;9.892;2023-03-02T13:02:28;101367.00;;;7.60
20103;BMP180;10210;52.284;9.892;2023-03-02T13:04:59;101368.00;;;7.60
20103;BMP180;10210;52.284;9.892;2023-03-02T13:07:35;101372.00;;;7.60
20103;BMP180;10210;52.284;9.892;2023-03-02T13:10:15;101359.00;;;7.60
20103;BMP180;10210;52.284;9.892;2023-03-02T13:12:45;101361.00;;;7.60
20103;BMP180;10210;52.284;9.892;2023-03-02T13:15:16;101350.00;;;7.60
20103;BMP180;10210;52.284;9.892;2023-03-02T13:17:43;101338.00;;;7.60
20103;BMP180;10210;52.284;9.892;2023-03-02T13:20:13;101333.00;;;7.50
20103;BMP180;10210;52.284;9.892;2023-03-02T13:22:39;101340.00;;;7.60
20103;BMP180;10210;52.284;9.892;2023-03-02T13:25:20;101332.00;;;7.50
20103;BMP180;10210;52.284;9.892;2023-03-02T13:27:57;101330.00;;;7.60
20103;BMP180;10210;52.284;9.892;2023-03-02T13:30:30;101328.00;;;7.60
20103;BMP180;10210;52.284;9.892;2023-03-02T13:33:17;101319.00;;;7.60
20103;BMP180;10210;52.284;9.892;2023-03-02T13:35:46;101324.00;;;7.60
20103;BMP180;10210;52.284;9.892;2023-03-02T13:38:18;101338.00;;;7.60
20103;BMP180;10210;52.284;9.892;2023-03-02T13:40:49;101333.00;;;7.70
20103;BMP180;10210;52.284;9.892;2023-03-02T13:43:34;101329.00;;;7.70
20103;BMP180;10210;52.284;9.892;2023-03-02T13:48:36;101328.00;;;7.70
20103;BMP180;10210;52.284;9.892;2023-03-02T13:51:17;101327.00;;;7.70
20103;BMP180;10210;52.284;9.892;2023-03-02T13:54:21;101322.00;;;7.70
20103;BMP180;10210;52.284;9.892;2023-03-02T13:56:50;101324.00;;;7.70
20103;BMP180;10210;52.284;9.892;2023-03-02T13:59:20;101319.00;;;7.70
20103;BMP180;10210;52.284;9.892;2023-03-02T14:01:46;101308.00;;;7.70
20103;BMP180;10210;52.284;9.892;2023-03-02T14:04:20;101302.00;;;7.70
20103;BMP180;10210;52.284;9.892;2023-03-02T14:06:49;101302.00;;;7.70
20103;BMP180;10210;52.284;9.892;2023-03-02T14:09:14;101306.00;;;7.70
20103;BMP180;10210;52.284;9.892;2023-03-02T14:11:45;101302.00;;;7.70
20103;BMP180;10210;52.284;9.892;2023-03-02T14:14:19;101302.00;;;7.70
20103;BMP180;10210;52.284;9.892;2023-03-02T14:16:45;101296.00;;;7.70
20103;BMP180;10210;52.284;9.892;2023-03-02T14:19:12;101300.00;;;7.70
20103;BMP180;10210;52.284;9.892;2023-03-02T14:21:38;101289.00;;;7.70
20103;BMP180;10210;52.284;9.892;2023-03-02T14:24:05;101296.00;;;7.70
20103;BMP180;10210;52.284;9.892;2023-03-02T14:26:37;101288.00;;;7.60
20103;BMP180;10210;52.284;9.892;2023-03-02T14:29:16;101292.00;;;7.60
20103;BMP180;10210;52.284;9.892;2023-03-02T14:31:44;101293.00;;;7.60
20103;BMP180;10210;52.284;9.892;2023-03-02T14:34:12;101283.00;;;7.60
20103;BMP180;10210;52.284;9.892;2023-03-02T14:36:38;101291.00;;;7.60
20103;BMP180;10210;52.284;9.892;2023-03-02T14:39:18;101280.00;;;7.60
20103;BMP180;10210;52.284;9.892;2023-03-02T14:41:45;101283.00;;;7.60
20103;BMP180;10210;52.284;9.892;2023-03-02T14:44:11;101286.00;;;7.50
20103;BMP180;10210;52.284;9.892;2023-03-02T14:46:36;101280.00;;;7.50
20103;BMP180;10210;52.284;9.892;2023-03-02T14:49:02;101283.00;;;7.50
20103;BMP180;10210;52.284;9.892;2023-03-02T14:51:33;101288.00;;;7.50
20103;BMP180;10210;52.284;9.892;2023-03-02T14:54:02;101284.00;;;7.50
20103;BMP180;10210;52.284;9.892;2023-03-02T14:56:29;101290.00;;;7.50